TimeMDT,TemperatureF,Dew PointF,Humidity,Sea Level PressureIn,VisibilityMPH,Wind Direction,Wind SpeedMPH,Gust SpeedMPH,PrecipitationIn,Events,Conditions,WindDirDegrees,DateUTC
12:55 AM,26.1,21.9,84,30.15,10.0,West,5.8,-,N/A,,Clear,280,2013-04-24 06:55:00
1:55 AM,27.0,21.0,78,30.12,10.0,West,6.9,-,N/A,,Clear,260,2013-04-24 07:55:00
2:55 AM,27.0,21.9,81,30.10,10.0,WNW,8.1,-,N/A,,Clear,300,2013-04-24 08:55:00
3:55 AM,28.0,23.0,81,30.08,10.0,WSW,10.4,-,N/A,,Clear,250,2013-04-24 09:55:00
4:55 AM,28.9,24.1,82,30.08,10.0,NNW,4.6,-,N/A,,Mostly Cloudy,330,2013-04-24 10:55:00
5:55 AM,28.0,24.1,85,30.08,10.0,WNW,3.5,-,N/A,,Partly Cloudy,300,2013-04-24 11:55:00
6:55 AM,30.9,24.1,76,30.07,10.0,WSW,12.7,-,N/A,,Clear,250,2013-04-24 12:55:00
7:55 AM,36.0,26.1,67,30.09,10.0,West,13.8,-,N/A,,Clear,260,2013-04-24 13:55:00
8:55 AM,41.0,30.0,65,30.08,10.0,WNW,23.0,35.7,N/A,,Clear,300,2013-04-24 14:55:00
9:55 AM,43.0,30.0,60,30.09,10.0,NW,29.9,41.4,N/A,,Partly Cloudy,320,2013-04-24 15:55:00
10:55 AM,45.0,30.0,56,30.10,10.0,NW,32.2,39.1,N/A,,Partly Cloudy,310,2013-04-24 16:55:00
11:36 AM,35.6,30.2,81,30.09,1.8,NW,27.6,49.5,0.00,Snow,Light Snow,310,2013-04-24 17:36:00
11:46 AM,37.4,35.6,93,30.09,3.0,NW,32.2,36.8,0.00,Snow,Light Snow,320,2013-04-24 17:46:00
11:55 AM,39.0,36.0,89,30.13,10.0,NW,26.5,38.0,0.00,,Mostly Cloudy,320,2013-04-24 17:55:00
12:04 PM,41.0,35.6,81,30.09,10.0,NW,26.5,34.5,N/A,,Scattered Clouds,320,2013-04-24 18:04:00
12:55 PM,43.0,30.0,60,30.13,10.0,NW,36.8,46.0,0.00,Rain,Light Rain,320,2013-04-24 18:55:00
1:55 PM,45.0,25.0,46,30.14,10.0,WNW,25.3,36.8,0.00,,Overcast,300,2013-04-24 19:55:00
2:55 PM,44.1,21.9,42,30.15,10.0,NW,25.3,40.3,N/A,,Overcast,310,2013-04-24 20:55:00
3:55 PM,46.9,21.9,37,30.14,10.0,NW,29.9,35.7,N/A,,Scattered Clouds,320,2013-04-24 21:55:00
4:55 PM,48.0,21.9,36,30.13,10.0,NW,24.2,33.4,N/A,,Mostly Cloudy,320,2013-04-24 22:55:00
5:55 PM,46.9,21.9,37,30.13,10.0,WNW,19.6,31.1,N/A,,Scattered Clouds,300,2013-04-24 23:55:00
6:55 PM,45.0,23.0,42,30.13,10.0,NW,16.1,-,N/A,,Mostly Cloudy,320,2013-04-25 00:55:00
7:55 PM,36.0,23.0,59,30.15,10.0,NNW,4.6,-,N/A,,Clear,340,2013-04-25 01:55:00
8:55 PM,35.1,24.1,64,30.17,10.0,NW,4.6,-,N/A,,Scattered Clouds,320,2013-04-25 02:55:00
9:55 PM,33.1,24.1,70,30.17,10.0,Calm,Calm,-,N/A,,Clear,0,2013-04-25 03:55:00
10:55 PM,30.0,24.1,79,30.16,10.0,Calm,Calm,-,N/A,,Clear,0,2013-04-25 04:55:00
11:55 PM,27.0,23.0,85,30.17,10.0,Calm,Calm,-,N/A,,Clear,0,2013-04-25 05:55:00